createdAt,value
2018-12-08T00:02:33.595Z,11.30
2018-12-08T00:06:45.684Z,11.30
2018-12-08T00:10:57.784Z,11.30
2018-12-08T00:15:09.973Z,11.30
2018-12-08T00:19:22.093Z,11.30
2018-12-08T00:23:34.152Z,11.30
2018-12-08T00:27:46.351Z,11.30
2018-12-08T00:31:58.332Z,11.30
2018-12-08T00:36:10.327Z,11.30
2018-12-08T00:40:22.433Z,11.30
2018-12-08T00:44:34.548Z,11.30
2018-12-08T00:48:46.656Z,11.30
2018-12-08T00:52:58.804Z,11.40
2018-12-08T00:57:10.775Z,11.40
2018-12-08T01:01:22.888Z,11.40
2018-12-08T01:05:35.072Z,11.40
2018-12-08T01:09:47.188Z,11.30
2018-12-08T01:13:59.408Z,11.30
2018-12-08T01:18:11.524Z,11.30
2018-12-08T01:22:23.831Z,11.40
2018-12-08T01:26:36.123Z,11.30
2018-12-08T01:30:48.048Z,11.40
2018-12-08T01:35:00.047Z,11.40
2018-12-08T01:39:12.247Z,11.50
2018-12-08T01:43:23.796Z,11.50
2018-12-08T01:47:35.508Z,11.50
2018-12-08T01:51:47.263Z,11.40
2018-12-08T01:55:59.265Z,11.30
2018-12-08T02:00:11.427Z,11.40
2018-12-08T02:04:23.475Z,11.40
2018-12-08T02:08:35.815Z,11.40
2018-12-08T02:12:47.699Z,11.40
2018-12-08T02:16:59.699Z,11.40
2018-12-08T02:21:11.811Z,11.40
2018-12-08T02:25:23.876Z,11.40
2018-12-08T02:29:35.963Z,11.40
2018-12-08T02:33:48.040Z,11.40
2018-12-08T02:37:59.931Z,11.40
2018-12-08T02:42:12.703Z,11.50
2018-12-08T02:46:24.704Z,11.50
2018-12-08T02:50:36.502Z,11.50
2018-12-08T02:54:48.267Z,11.50
2018-12-08T02:59:00.268Z,11.50
2018-12-08T03:03:12.391Z,11.50
2018-12-08T03:07:24.408Z,11.40
2018-12-08T03:11:36.441Z,11.40
2018-12-08T03:15:48.403Z,11.40
2018-12-08T03:20:00.599Z,11.40
2018-12-08T03:24:12.511Z,11.40
2018-12-08T03:28:24.145Z,11.40
2018-12-08T03:32:35.970Z,11.40
2018-12-08T03:36:47.752Z,11.40
2018-12-08T03:41:01.038Z,11.50
2018-12-08T03:45:13.065Z,11.60
2018-12-08T03:49:25.164Z,11.60
2018-12-08T03:53:36.801Z,11.60
2018-12-08T03:57:48.511Z,11.60
2018-12-08T04:02:00.380Z,11.60
2018-12-08T04:06:12.491Z,11.60
2018-12-08T04:10:24.323Z,11.60
2018-12-08T04:14:36.327Z,11.60
2018-12-08T04:18:48.357Z,11.50
2018-12-08T04:23:00.386Z,11.50
2018-12-08T04:27:12.482Z,11.50
2018-12-08T04:31:24.515Z,11.50
2018-12-08T04:35:36.837Z,11.60
2018-12-08T04:39:48.725Z,11.70
2018-12-08T04:44:00.636Z,11.70
2018-12-08T04:48:12.638Z,11.70
2018-12-08T04:52:24.729Z,11.70
2018-12-08T04:56:36.361Z,11.70
2018-12-08T05:00:48.173Z,11.80
2018-12-08T05:05:00.090Z,11.80
2018-12-08T05:09:12.390Z,11.80
2018-12-08T05:13:24.344Z,11.80
2018-12-08T05:17:36.063Z,11.80
2018-12-08T05:21:48.066Z,11.80
2018-12-08T05:26:00.064Z,11.90
2018-12-08T05:30:12.169Z,11.90
2018-12-08T05:34:24.290Z,11.90
2018-12-08T05:38:36.387Z,11.90
2018-12-08T05:42:48.642Z,11.90
2018-12-08T05:47:00.661Z,11.90
2018-12-08T05:51:12.859Z,11.90
2018-12-08T05:55:24.819Z,12.00
2018-12-08T05:59:36.830Z,12.00
2018-12-08T06:03:48.965Z,12.00
2018-12-08T06:08:00.945Z,12.10
2018-12-08T06:12:13.643Z,12.00
2018-12-08T06:16:25.359Z,12.00
2018-12-08T06:20:37.487Z,11.90
2018-12-08T06:24:49.588Z,11.90
2018-12-08T06:29:01.503Z,11.90
2018-12-08T06:33:13.762Z,11.90
2018-12-08T06:37:26.566Z,11.90
2018-12-08T06:41:38.371Z,11.90
2018-12-08T06:45:50.135Z,11.90
2018-12-08T06:50:02.357Z,11.90
2018-12-08T06:54:14.367Z,11.90
2018-12-08T06:58:26.491Z,11.90
2018-12-08T07:02:38.745Z,11.90
2018-12-08T07:06:50.571Z,11.90
2018-12-08T07:11:02.683Z,11.90
2018-12-08T07:15:14.895Z,11.90
2018-12-08T07:19:26.887Z,11.90
2018-12-08T07:23:38.903Z,12.00
2018-12-08T07:27:50.951Z,12.00
2018-12-08T07:32:03.054Z,12.00
2018-12-08T07:36:15.018Z,11.90
2018-12-08T07:40:27.122Z,12.00
2018-12-08T07:44:39.087Z,12.00
2018-12-08T07:48:51.167Z,12.10
2018-12-08T07:53:04.408Z,12.20
2018-12-08T07:57:17.016Z,12.30
2018-12-08T08:01:29.030Z,12.30
2018-12-08T08:05:40.912Z,12.30
2018-12-08T08:09:53.019Z,12.40
2018-12-08T08:14:05.159Z,12.30
2018-12-08T08:18:17.240Z,12.20
2018-12-08T08:22:29.332Z,12.10
2018-12-08T08:26:41.444Z,12.10
2018-12-08T08:30:53.659Z,12.10
2018-12-08T08:35:05.931Z,12.20
2018-12-08T08:39:17.966Z,12.30
2018-12-08T08:43:30.280Z,12.40
2018-12-08T08:47:42.335Z,12.40
2018-12-08T08:51:54.416Z,12.40
2018-12-08T08:56:06.451Z,12.50
2018-12-08T09:00:19.704Z,12.50
2018-12-08T09:04:31.435Z,12.50
2018-12-08T09:08:43.490Z,12.50
2018-12-08T09:12:55.772Z,12.50
2018-12-08T09:17:07.512Z,12.50
2018-12-08T09:21:19.399Z,12.50
2018-12-08T09:25:31.315Z,12.60
2018-12-08T09:29:43.265Z,12.50
2018-12-08T09:33:55.449Z,12.50
2018-12-08T09:38:07.496Z,12.60
2018-12-08T09:42:19.686Z,12.60
2018-12-08T09:46:31.787Z,12.60
2018-12-08T09:50:43.438Z,12.60
2018-12-08T09:54:55.260Z,12.60
2018-12-08T09:59:07.052Z,12.50
2018-12-08T10:03:18.969Z,12.50
2018-12-08T10:07:32.747Z,12.50
2018-12-08T10:11:44.801Z,12.50
2018-12-08T10:15:56.850Z,12.50
2018-12-08T10:20:08.905Z,12.50
2018-12-08T10:24:20.846Z,12.60
2018-12-08T10:28:32.803Z,12.60
2018-12-08T10:32:44.966Z,12.70
2018-12-08T10:36:56.983Z,12.80
2018-12-08T10:41:09.343Z,12.80
2018-12-08T10:45:21.334Z,12.80
2018-12-08T10:49:33.432Z,12.80
2018-12-08T10:53:46.056Z,12.80
2018-12-08T10:57:57.959Z,12.80
2018-12-08T11:02:14.197Z,12.80
2018-12-08T11:06:26.158Z,12.80
2018-12-08T11:10:38.367Z,12.80
2018-12-08T11:14:50.479Z,12.80
2018-12-08T11:19:04.681Z,12.80
2018-12-08T11:23:16.785Z,12.80
2018-12-08T11:27:29.184Z,12.90
2018-12-08T11:31:40.928Z,12.90
2018-12-08T11:35:52.702Z,12.90
2018-12-08T11:40:04.778Z,12.90
2018-12-08T11:44:16.812Z,12.90
2018-12-08T11:48:28.528Z,12.80
2018-12-08T11:52:40.498Z,12.80
2018-12-08T11:56:52.499Z,12.70
2018-12-08T12:01:04.765Z,12.70
2018-12-08T12:05:16.839Z,12.70
2018-12-08T12:09:28.911Z,12.70
2018-12-08T12:13:41.019Z,12.70
2018-12-08T12:17:53.111Z,12.70
2018-12-08T12:22:05.223Z,12.70
2018-12-08T12:26:17.244Z,12.70
2018-12-08T12:30:30.024Z,12.70
2018-12-08T12:34:41.771Z,12.70
2018-12-08T12:38:53.856Z,12.70
2018-12-08T12:43:06.155Z,12.80
2018-12-08T12:47:18.312Z,12.70
2018-12-08T12:51:30.342Z,12.70
2018-12-08T12:55:42.507Z,12.70
2018-12-08T12:59:54.427Z,12.70
2018-12-08T13:04:06.322Z,12.70
2018-12-08T13:08:18.451Z,12.80
2018-12-08T13:12:30.677Z,12.80
2018-12-08T13:16:42.647Z,12.80
2018-12-08T13:20:54.860Z,12.90
2018-12-08T13:25:16.851Z,12.90
2018-12-08T13:29:28.711Z,12.90
2018-12-08T13:33:40.611Z,13.00
2018-12-08T13:37:52.514Z,13.00
2018-12-08T13:42:04.876Z,13.00
2018-12-08T13:46:16.857Z,13.00
2018-12-08T13:50:28.858Z,13.00
2018-12-08T13:54:47.757Z,13.00
2018-12-08T13:58:59.568Z,13.00
2018-12-08T14:03:11.436Z,13.10
2018-12-08T14:07:23.140Z,13.10
2018-12-08T14:11:35.116Z,13.10
2018-12-08T14:15:47.222Z,13.20
2018-12-08T14:20:06.113Z,13.20
2018-12-08T14:24:17.979Z,13.30
2018-12-08T14:28:30.139Z,13.30
2018-12-08T14:32:42.000Z,13.30
2018-12-08T14:36:54.013Z,13.30
2018-12-08T14:41:06.155Z,13.30
2018-12-08T14:45:18.520Z,13.30
2018-12-08T14:49:30.842Z,13.40
2018-12-08T14:53:43.318Z,13.40
2018-12-08T14:57:55.499Z,13.40
2018-12-08T15:02:06.901Z,13.40
2018-12-08T15:06:18.904Z,13.50
2018-12-08T15:10:30.846Z,13.50
2018-12-08T15:14:43.083Z,13.60
2018-12-08T15:18:55.163Z,13.60
2018-12-08T15:23:07.154Z,13.60
2018-12-08T15:27:19.295Z,13.60
2018-12-08T15:31:31.312Z,13.50
2018-12-08T15:35:43.314Z,13.50
2018-12-08T15:39:55.510Z,13.50
2018-12-08T15:44:07.637Z,13.50
2018-12-08T15:48:19.791Z,13.50
2018-12-08T15:52:31.940Z,13.50
2018-12-08T15:56:43.952Z,13.50
2018-12-08T16:00:56.131Z,13.50
2018-12-08T16:05:08.448Z,13.50
2018-12-08T16:09:20.386Z,13.50
2018-12-08T16:13:32.471Z,13.40
2018-12-08T16:17:44.742Z,13.40
2018-12-08T16:21:56.537Z,13.40
2018-12-08T16:26:08.423Z,13.30
2018-12-08T16:30:20.523Z,13.30
2018-12-08T16:34:32.644Z,13.30
2018-12-08T16:38:44.715Z,13.30
2018-12-08T16:42:56.735Z,13.30
2018-12-08T16:47:08.912Z,13.30
2018-12-08T16:51:21.060Z,13.30
2018-12-08T16:55:33.065Z,13.30
2018-12-08T16:59:45.174Z,13.30
2018-12-08T17:03:57.282Z,13.30
2018-12-08T17:08:09.285Z,13.40
2018-12-08T17:12:21.499Z,13.40
2018-12-08T17:16:33.595Z,13.40
2018-12-08T17:20:45.992Z,13.40
2018-12-08T17:24:58.051Z,13.40
2018-12-08T17:29:09.961Z,13.40
2018-12-08T17:33:22.323Z,13.40
2018-12-08T17:37:34.279Z,13.40
2018-12-08T17:41:46.268Z,13.40
2018-12-08T17:45:58.267Z,13.40
2018-12-08T17:50:10.650Z,13.40
2018-12-08T17:54:22.578Z,13.40
2018-12-08T17:58:34.613Z,13.40
2018-12-08T18:02:46.678Z,13.40
2018-12-08T18:06:58.765Z,13.40
2018-12-08T18:11:10.811Z,13.40
2018-12-08T18:15:22.923Z,13.40
2018-12-08T18:19:35.019Z,13.40
2018-12-08T18:23:47.064Z,13.40
2018-12-08T18:27:59.099Z,13.30
2018-12-08T18:32:11.048Z,13.30
2018-12-08T18:36:23.160Z,13.30
2018-12-08T18:40:35.163Z,13.20
2018-12-08T18:44:47.063Z,13.10
2018-12-08T18:48:59.175Z,13.10
2018-12-08T18:53:11.332Z,13.10
2018-12-08T18:57:23.418Z,13.00
2018-12-08T19:01:35.435Z,13.00
2018-12-08T19:05:47.451Z,13.00
2018-12-08T19:09:59.512Z,13.00
2018-12-08T19:14:11.613Z,13.00
2018-12-08T19:18:23.820Z,12.90
2018-12-08T19:22:35.982Z,12.90
2018-12-08T19:26:48.099Z,12.90
2018-12-08T19:31:00.145Z,12.90
2018-12-08T19:35:12.258Z,12.90
2018-12-08T19:39:24.517Z,12.90
2018-12-08T19:43:36.467Z,12.80
2018-12-08T19:47:48.481Z,12.80
2018-12-08T19:52:00.591Z,12.80
2018-12-08T19:56:12.694Z,12.90
2018-12-08T20:00:24.860Z,12.90
2018-12-08T20:04:36.916Z,12.90
2018-12-08T20:08:48.924Z,12.90
2018-12-08T20:13:01.108Z,12.90
2018-12-08T20:17:12.676Z,12.90
2018-12-08T20:21:24.384Z,13.00
2018-12-08T20:25:36.131Z,13.00
2018-12-08T20:29:48.234Z,13.00
2018-12-08T20:34:00.252Z,13.10
2018-12-08T20:38:12.337Z,13.10
2018-12-08T20:42:24.495Z,13.10
2018-12-08T20:46:38.026Z,13.10
2018-12-08T20:50:50.859Z,13.10
2018-12-08T20:55:02.756Z,13.10
2018-12-08T20:59:14.516Z,13.10
2018-12-08T21:03:26.540Z,13.10
2018-12-08T21:07:38.531Z,13.10
2018-12-08T21:11:50.659Z,13.10
2018-12-08T21:16:02.665Z,13.00
2018-12-08T21:20:14.666Z,12.90
2018-12-08T21:24:26.746Z,12.90
2018-12-08T21:28:38.864Z,12.90
2018-12-08T21:32:51.070Z,12.90
2018-12-08T21:37:03.279Z,12.90
2018-12-08T21:41:15.407Z,12.90
2018-12-08T21:45:27.758Z,12.80
2018-12-08T21:49:39.717Z,12.90
2018-12-08T21:53:51.810Z,12.90
2018-12-08T21:58:03.942Z,12.90
2018-12-08T22:02:15.952Z,13.00
2018-12-08T22:06:28.039Z,13.00
2018-12-08T22:10:40.210Z,13.00
2018-12-08T22:14:57.103Z,13.00
2018-12-08T22:19:08.982Z,13.00
2018-12-08T22:23:20.999Z,12.90
2018-12-08T22:27:33.101Z,12.90
2018-12-08T22:31:45.337Z,12.80
2018-12-08T22:35:57.554Z,12.80
2018-12-08T22:40:09.811Z,12.80
2018-12-08T22:44:22.218Z,12.90
2018-12-08T22:48:34.098Z,12.90
2018-12-08T22:52:46.091Z,12.90
2018-12-08T22:56:57.976Z,12.90
2018-12-08T23:01:09.997Z,12.90
2018-12-08T23:05:21.915Z,12.90
2018-12-08T23:09:33.908Z,12.80
2018-12-08T23:13:45.897Z,12.90
2018-12-08T23:17:57.816Z,12.90
2018-12-08T23:22:09.791Z,12.90
2018-12-08T23:26:20.956Z,12.90
2018-12-08T23:30:32.775Z,12.80
2018-12-08T23:34:44.676Z,12.80
2018-12-08T23:38:56.835Z,12.80
2018-12-08T23:43:08.938Z,12.80
2018-12-08T23:47:21.034Z,12.80
2018-12-08T23:51:33.128Z,12.80
2018-12-08T23:55:45.220Z,12.70
2018-12-08T23:59:57.302Z,12.70
